Time;durP1;ratioP1;P1;durP2;ratioP2;P2;SDS_P1;SDS_P2;PMS_P1;PMS_P2;Temp;Humidity;BMP_temperature;BMP_pressure;BME280_temperature;BME280_humidity;BME280_pressure;Samples;Min_cycle;Max_cycle;Signal;HPM_P1;HPM_P2
2023/12/03 00:01:10;;;;;;;3.28;1.27;;;;;;;-3.65;71.61;101434.31;5044232;28;20124;-70
2023/12/03 00:03:36;;;;;;;2.83;1.25;;;;;;;-3.68;71.72;101428.19;5046738;28;20091;-70
2023/12/03 00:06:03;;;;;;;2.65;0.60;;;;;;;-3.62;71.80;101431.03;5045724;28;20041;-70
2023/12/03 00:08:30;;;;;;;2.63;0.65;;;;;;;-3.62;72.05;101428.50;5046561;28;20087;-70
2023/12/03 00:10:57;;;;;;;1.60;0.68;;;;;;;-3.61;71.67;101425.16;5041300;28;20133;-71
2023/12/03 00:13:25;;;;;;;2.22;0.85;;;;;;;-3.62;72.06;101428.50;5048713;28;20137;-71
2023/12/03 00:15:52;;;;;;;2.22;0.98;;;;;;;-3.61;71.80;101437.94;5044617;28;20052;-70
2023/12/03 00:18:19;;;;;;;2.10;0.65;;;;;;;-3.60;71.93;101428.59;5044642;28;20134;-71
2023/12/03 00:20:46;;;;;;;2.80;0.85;;;;;;;-3.59;71.76;101431.19;5044160;28;20076;-71
2023/12/03 00:23:13;;;;;;;2.40;0.93;;;;;;;-3.59;71.56;101427.78;5046410;28;20124;-71
2023/12/03 00:25:40;;;;;;;2.05;0.60;;;;;;;-3.58;72.18;101420.19;5044833;28;20144;-71
2023/12/03 00:28:07;;;;;;;1.55;0.65;;;;;;;-3.56;71.67;101417.72;5044139;28;20128;-73
2023/12/03 00:30:35;;;;;;;3.28;0.98;;;;;;;-3.57;71.88;101416.84;5042791;28;20478;-74
2023/12/03 00:33:02;;;;;;;1.45;0.60;;;;;;;-3.56;71.85;101403.25;5045621;28;20085;-73
2023/12/03 00:35:29;;;;;;;2.05;0.65;;;;;;;-3.55;71.77;101399.06;5048020;28;20086;-73
2023/12/03 00:37:56;;;;;;;1.85;0.70;;;;;;;-3.55;72.11;101412.69;5040990;28;20160;-73
2023/12/03 00:40:23;;;;;;;1.83;0.80;;;;;;;-3.54;72.05;101419.53;5043156;28;20120;-75
2023/12/03 00:42:50;;;;;;;1.48;0.70;;;;;;;-3.53;72.05;101422.97;5040472;28;20084;-73
2023/12/03 00:45:17;;;;;;;1.83;0.60;;;;;;;-3.52;72.21;101424.72;5037166;28;20539;-73
2023/12/03 00:47:45;;;;;;;2.55;0.70;;;;;;;-3.51;71.92;101437.56;5044625;28;20125;-73
2023/12/03 00:50:13;;;;;;;2.55;0.90;;;;;;;-3.51;71.79;101435.00;5046004;28;20491;-73
2023/12/03 00:52:40;;;;;;;1.58;0.70;;;;;;;-3.50;72.31;101438.44;5044695;28;20466;-73
2023/12/03 00:55:08;;;;;;;1.38;1.00;;;;;;;-3.49;72.28;101433.41;5045581;28;20053;-72
2023/12/03 00:57:35;;;;;;;2.00;0.70;;;;;;;-3.49;72.34;101435.97;5046806;28;20086;-74
2023/12/03 01:00:02;;;;;;;3.53;0.75;;;;;;;-3.48;71.92;101437.72;5042757;28;20147;-73
2023/12/03 01:02:29;;;;;;;2.70;0.80;;;;;;;-3.48;72.20;101437.72;5045963;28;20068;-73
2023/12/03 01:04:58;;;;;;;1.40;0.50;;;;;;;-3.45;71.91;101442.09;5045097;28;20123;-73
2023/12/03 01:07:24;;;;;;;1.92;0.57;;;;;;;-3.46;72.32;101431.00;5043110;28;20081;-73
2023/12/03 01:09:51;;;;;;;2.63;0.70;;;;;;;-3.44;72.27;101429.41;5044043;28;20041;-73
2023/12/03 01:12:18;;;;;;;2.03;0.88;;;;;;;-3.43;72.43;101431.16;5046191;28;20072;-73
2023/12/03 01:14:45;;;;;;;2.55;0.85;;;;;;;-3.41;72.15;101432.13;5042766;28;20083;-74
2023/12/03 01:17:12;;;;;;;2.25;1.00;;;;;;;-3.40;72.04;101431.31;5041209;28;20088;-73
2023/12/03 01:19:39;;;;;;;1.75;0.77;;;;;;;-3.40;72.41;101431.31;5044224;28;20116;-69
2023/12/03 01:22:08;;;;;;;1.38;0.60;;;;;;;-3.38;72.20;101433.94;5045874;28;20078;-69
2023/12/03 01:24:35;;;;;;;2.65;0.85;;;;;;;-3.38;72.27;101435.63;5046148;28;20106;-70
2023/12/03 01:27:02;;;;;;;1.77;0.60;;;;;;;-3.38;72.64;101430.53;5043872;28;20049;-69
2023/12/03 01:29:29;;;;;;;2.70;0.60;;;;;;;-3.36;72.04;101439.09;5043514;28;20047;-69
2023/12/03 01:31:57;;;;;;;1.42;0.63;;;;;;;-3.35;72.22;101441.75;5036580;28;20053;-69
2023/12/03 01:34:24;;;;;;;1.83;1.08;;;;;;;-3.35;72.27;101443.44;5044079;28;20052;-69
2023/12/03 01:36:51;;;;;;;1.58;0.60;;;;;;;-3.34;72.67;101445.19;5045761;28;20087;-69
2023/12/03 01:39:20;;;;;;;1.60;0.68;;;;;;;-3.33;72.33;101441.81;5042083;28;20100;-70
2023/12/03 01:41:47;;;;;;;1.33;0.70;;;;;;;-3.33;72.56;101441.81;5042184;28;20045;-70
2023/12/03 01:44:14;;;;;;;2.17;0.70;;;;;;;-3.32;72.00;101439.34;5043232;28;20160;-70
2023/12/03 01:46:41;;;;;;;2.50;0.80;;;;;;;-3.33;72.03;101439.25;5044409;28;22080;-70
2023/12/03 01:49:08;;;;;;;1.85;0.95;;;;;;;-3.30;72.13;101447.06;5042938;28;20129;-70
2023/12/03 01:51:35;;;;;;;0.90;0.57;;;;;;;-3.29;72.43;101447.16;5045282;28;20080;-70
2023/12/03 01:54:03;;;;;;;3.15;0.88;;;;;;;-3.30;72.57;101442.84;5044878;28;20437;-70
2023/12/03 01:56:32;;;;;;;1.73;0.65;;;;;;;-3.32;72.50;101447.00;5046059;28;20044;-70
2023/12/03 01:58:58;;;;;;;2.47;1.02;;;;;;;-3.27;72.68;101458.34;5042084;28;20063;-70
2023/12/03 02:01:25;;;;;;;1.27;0.65;;;;;;;-3.26;72.61;101448.97;5043964;28;20072;-70
2023/12/03 02:03:52;;;;;;;3.10;0.80;;;;;;;-3.26;72.49;101456.66;5041132;28;20126;-70
2023/12/03 02:06:19;;;;;;;1.35;0.52;;;;;;;-3.24;72.67;101462.72;5045976;28;20451;-70
2023/12/03 02:08:47;;;;;;;2.15;0.63;;;;;;;-3.23;72.66;101467.00;5041623;28;20103;-70
2023/12/03 02:11:15;;;;;;;1.50;0.82;;;;;;;-3.22;72.77;101468.75;5040586;28;20556;-71
2023/12/03 02:13:44;;;;;;;2.25;0.90;;;;;;;-3.22;72.79;101461.97;5040246;28;21145;-71
2023/12/03 02:16:11;;;;;;;1.23;0.70;;;;;;;-3.20;72.40;101467.16;5042927;28;20076;-70
2023/12/03 02:18:39;;;;;;;2.03;0.88;;;;;;;-3.20;72.71;101462.91;5038085;28;20565;-70
2023/12/03 02:21:06;;;;;;;2.08;0.60;;;;;;;-3.20;72.40;101462.91;5046713;28;20682;-71
2023/12/03 02:23:35;;;;;;;3.25;0.88;;;;;;;-3.19;72.51;101466.34;5040937;28;20568;-70
2023/12/03 02:26:02;;;;;;;1.63;0.70;;;;;;;-3.18;72.84;101468.13;5043546;28;20045;-70
2023/12/03 02:28:29;;;;;;;3.85;1.10;;;;;;;-3.17;72.28;101467.31;5042590;28;20103;-71
2023/12/03 02:30:57;;;;;;;2.60;0.95;;;;;;;-3.14;72.55;101469.13;5042927;28;20447;-71
2023/12/03 02:33:24;;;;;;;1.30;0.68;;;;;;;-3.13;72.49;101465.75;5040758;28;20529;-71
2023/12/03 02:35:51;;;;;;;2.35;0.80;;;;;;;-3.13;72.31;101464.13;5042083;28;20072;-71
2023/12/03 02:38:18;;;;;;;2.00;0.80;;;;;;;-3.13;72.64;101461.56;5038232;28;20128;-71
2023/12/03 02:40:46;;;;;;;2.33;0.80;;;;;;;-3.15;72.25;101458.03;5046621;28;20076;-71
2023/12/03 02:43:13;;;;;;;5.22;0.95;;;;;;;-3.12;72.51;101462.44;5042339;28;20512;-71
2023/12/03 02:45:40;;;;;;;1.42;0.50;;;;;;;-3.12;72.71;101460.75;5042955;28;20770;-71
2023/12/03 02:48:07;;;;;;;1.80;0.70;;;;;;;-3.10;72.64;101466.81;5045739;28;20131;-70
2023/12/03 02:50:34;;;;;;;1.58;0.80;;;;;;;-3.10;72.72;101466.81;5046095;28;20129;-71
2023/12/03 02:53:01;;;;;;;1.52;0.80;;;;;;;-3.09;72.74;101470.25;5043290;28;20104;-71
2023/12/03 02:55:28;;;;;;;3.92;1.00;;;;;;;-3.08;72.72;101471.97;5042190;28;20045;-71
2023/12/03 02:57:57;;;;;;;2.75;0.80;;;;;;;-3.07;72.65;101473.75;5038361;28;20072;-71
2023/12/03 03:00:24;;;;;;;3.58;0.95;;;;;;;-3.06;72.81;101475.50;5043690;28;20086;-71
2023/12/03 03:02:50;;;;;;;2.95;0.80;;;;;;;-3.08;72.53;101472.84;5042109;28;20092;-71
2023/12/03 03:05:18;;;;;;;3.67;1.00;;;;;;;-3.06;72.55;101478.06;5044202;28;20144;-71
2023/12/03 03:07:44;;;;;;;1.67;0.70;;;;;;;-3.06;72.42;101484.03;5044242;28;20095;-71
2023/12/03 03:10:11;;;;;;;3.22;0.80;;;;;;;-3.06;72.34;101473.81;5040444;28;20120;-71
2023/12/03 03:12:38;;;;;;;1.50;0.60;;;;;;;-3.05;72.60;101475.56;5040721;28;20155;-72
2023/12/03 03:15:08;;;;;;;2.53;0.77;;;;;;;-3.03;72.11;101473.09;5037275;28;20491;-71
2023/12/03 03:17:35;;;;;;;2.88;0.70;;;;;;;-3.04;72.66;101476.44;5043316;28;20052;-71
2023/12/03 03:20:03;;;;;;;6.22;0.90;;;;;;;-3.04;72.56;101472.22;5046142;28;20077;-71
2023/12/03 03:22:29;;;;;;;2.58;0.93;;;;;;;-3.04;72.62;101477.31;5039902;28;20842;-71
2023/12/03 03:24:56;;;;;;;1.77;0.90;;;;;;;-3.05;72.71;101475.56;5044809;28;20139;-71
2023/12/03 03:27:23;;;;;;;3.05;1.33;;;;;;;-3.07;72.35;101472.06;5042690;28;20128;-71
2023/12/03 03:29:50;;;;;;;4.53;0.98;;;;;;;-3.03;72.48;101473.94;5041478;28;20510;-71
2023/12/03 03:32:19;;;;;;;2.30;0.70;;;;;;;-3.04;72.99;101477.31;5042136;28;20068;-71
2023/12/03 03:34:46;;;;;;;1.98;0.77;;;;;;;-3.02;72.34;101475.69;5046738;28;20132;-71
2023/12/03 03:37:13;;;;;;;4.30;0.77;;;;;;;-3.02;72.19;101480.81;5049815;28;20048;-71
2023/12/03 03:39:40;;;;;;;1.27;0.75;;;;;;;-3.01;72.37;101486.81;5046309;28;20076;-69
2023/12/03 03:42:07;;;;;;;1.50;0.77;;;;;;;-3.02;72.62;101488.47;5045066;28;20109;-70
2023/12/03 03:44:34;;;;;;;4.13;1.10;;;;;;;-3.01;72.52;101487.69;5043803;28;21325;-69
2023/12/03 03:47:01;;;;;;;2.15;1.10;;;;;;;-3.01;72.71;101485.13;5047877;28;20080;-69
2023/12/03 03:49:29;;;;;;;2.45;1.05;;;;;;;-3.01;72.58;101482.56;5045482;28;20128;-69
2023/12/03 03:51:56;;;;;;;4.90;0.65;;;;;;;-3.00;72.23;101484.31;5046757;28;20126;-70
2023/12/03 03:54:23;;;;;;;1.50;0.57;;;;;;;-3.02;72.65;101480.81;5046325;28;20080;-69
2023/12/03 03:56:50;;;;;;;2.20;0.88;;;;;;;-3.00;72.38;101484.31;5045926;28;20128;-69
2023/12/03 03:59:17;;;;;;;2.78;0.80;;;;;;;-3.01;72.29;101485.13;5043096;28;20091;-73
2023/12/03 04:01:45;;;;;;;3.08;0.60;;;;;;;-3.01;72.63;101485.13;5045564;28;20127;-73
2023/12/03 04:04:12;;;;;;;2.60;0.80;;;;;;;-3.00;72.55;101484.31;5044880;28;20080;-73
2023/12/03 04:06:41;;;;;;;2.10;0.70;;;;;;;-2.99;72.55;101483.53;5048005;28;20080;-73
2023/12/03 04:09:09;;;;;;;1.70;0.50;;;;;;;-2.98;72.74;101477.63;5044644;28;20084;-73
2023/12/03 04:11:40;;;;;;;1.58;1.10;;;;;;;-2.98;72.23;101474.19;5047176;28;20073;-73
2023/12/03 04:14:08;;;;;;;2.03;0.98;;;;;;;-2.97;72.55;101484.47;5048891;28;20041;-73
2023/12/03 04:16:35;;;;;;;1.88;0.90;;;;;;;-2.97;72.51;101475.94;5044173;28;20129;-72
2023/12/03 04:19:02;;;;;;;1.90;0.80;;;;;;;-2.97;72.21;101486.16;5048299;28;20080;-73
2023/12/03 04:21:30;;;;;;;1.33;0.63;;;;;;;-2.97;72.48;101473.38;5047732;28;20049;-72
2023/12/03 04:23:59;;;;;;;1.88;0.80;;;;;;;-2.98;72.34;101476.75;5043673;28;20057;-73
2023/12/03 04:26:26;;;;;;;1.48;0.68;;;;;;;-2.97;72.15;101481.91;5044880;28;20124;-73
2023/12/03 04:28:53;;;;;;;0.85;0.40;;;;;;;-2.98;72.53;101475.06;5045458;28;20124;-73
2023/12/03 04:31:21;;;;;;;1.30;0.50;;;;;;;-2.97;72.76;101484.47;5042201;28;20049;-73
2023/12/03 04:33:49;;;;;;;1.70;0.80;;;;;;;-2.97;72.28;101487.03;5044190;28;20134;-72
2023/12/03 04:36:17;;;;;;;3.28;0.77;;;;;;;-2.97;72.44;101492.13;5043756;28;20049;-73
2023/12/03 04:38:44;;;;;;;3.22;0.85;;;;;;;-2.99;72.83;101486.09;5043318;28;20092;-73
2023/12/03 04:41:12;;;;;;;1.50;0.60;;;;;;;-2.97;72.63;101492.13;5046581;28;20085;-73
2023/12/03 04:43:39;;;;;;;1.67;0.70;;;;;;;-2.96;72.35;101495.56;5044593;28;20559;-72
2023/12/03 04:46:07;;;;;;;2.63;0.57;;;;;;;-2.97;72.49;101493.81;5046326;28;20565;-73
2023/12/03 04:48:36;;;;;;;3.30;0.90;;;;;;;-2.98;72.44;101489.53;5044065;28;20131;-71
2023/12/03 04:51:03;;;;;;;2.15;0.95;;;;;;;-2.98;72.32;101487.84;5046235;28;20144;-71
2023/12/03 04:53:30;;;;;;;1.85;0.70;;;;;;;-2.97;72.58;101493.81;5041735;28;20180;-71
2023/12/03 04:55:57;;;;;;;1.17;0.60;;;;;;;-3.03;72.52;101481.63;5045111;28;20091;-72
2023/12/03 04:58:26;;;;;;;1.42;0.80;;;;;;;-2.97;72.37;101496.38;5046224;28;20529;-72
2023/12/03 05:00:53;;;;;;;1.10;0.60;;;;;;;-3.01;72.26;101495.34;5044762;28;20502;-72
2023/12/03 05:03:20;;;;;;;1.50;0.80;;;;;;;-2.98;72.15;101508.28;5044939;28;20045;-72
2023/12/03 05:05:47;;;;;;;1.60;0.90;;;;;;;-2.97;72.35;101504.91;5045836;28;20103;-71
2023/12/03 05:08:14;;;;;;;1.35;0.55;;;;;;;-2.99;72.38;101501.44;5044875;28;20467;-71
2023/12/03 05:10:41;;;;;;;2.55;0.90;;;;;;;-3.00;72.59;101492.00;5047138;28;20454;-71
2023/12/03 05:13:08;;;;;;;1.65;0.85;;;;;;;-2.98;72.42;101497.19;5044437;28;20057;-72
2023/12/03 05:15:37;;;;;;;1.30;0.50;;;;;;;-2.98;72.60;101504.84;5043219;28;20064;-71
2023/12/03 05:18:04;;;;;;;2.30;0.80;;;;;;;-2.99;72.29;101490.31;5042721;28;20131;-71
2023/12/03 05:20:32;;;;;;;1.52;0.75;;;;;;;-2.97;72.39;101493.81;5045366;28;20515;-72
2023/12/03 05:22:59;;;;;;;1.13;0.70;;;;;;;-2.97;72.64;101494.69;5045287;28;20048;-72
2023/12/03 05:25:26;;;;;;;1.83;0.60;;;;;;;-2.99;72.44;101491.22;5045252;28;20052;-71
2023/12/03 05:27:53;;;;;;;1.30;0.50;;;;;;;-2.99;72.48;101488.66;5044078;28;20124;-71
2023/12/03 05:30:20;;;;;;;1.50;0.70;;;;;;;-3.00;72.43;101486.88;5043351;28;20124;-71
2023/12/03 05:32:48;;;;;;;1.25;0.60;;;;;;;-2.99;72.55;101492.84;5046789;28;20483;-71
2023/12/03 05:35:15;;;;;;;1.15;0.70;;;;;;;-3.00;72.52;101489.44;5041023;28;20138;-71
2023/12/03 05:37:42;;;;;;;1.85;0.80;;;;;;;-3.01;72.47;101492.81;5044859;28;20544;-71
2023/12/03 05:40:10;;;;;;;1.00;0.50;;;;;;;-3.00;72.34;101491.13;5044809;28;20080;-72
2023/12/03 05:42:37;;;;;;;2.25;0.80;;;;;;;-3.01;72.71;101485.13;5046058;28;20044;-71
2023/12/03 05:45:04;;;;;;;2.53;0.90;;;;;;;-3.01;72.19;101485.13;5043861;28;20080;-71
2023/12/03 05:47:31;;;;;;;3.30;0.68;;;;;;;-3.01;72.23;101486.81;5044894;28;20451;-71
2023/12/03 05:50:01;;;;;;;1.85;0.70;;;;;;;-3.01;72.48;101487.69;5042996;28;20058;-71
2023/12/03 05:52:28;;;;;;;1.50;0.60;;;;;;;-3.01;72.32;101489.38;5045575;28;20060;-71
2023/12/03 05:54:55;;;;;;;1.20;0.57;;;;;;;-3.03;72.00;101489.28;5040716;28;20134;-71
2023/12/03 05:57:22;;;;;;;3.15;0.80;;;;;;;-3.04;72.38;101490.09;5042634;28;20502;-71
2023/12/03 05:59:50;;;;;;;4.20;0.55;;;;;;;-3.02;72.22;101492.72;5046434;28;20107;-71
2023/12/03 06:02:17;;;;;;;2.00;0.63;;;;;;;-3.04;72.11;101492.66;5041778;28;20064;-71
2023/12/03 06:04:44;;;;;;;1.25;0.60;;;;;;;-3.04;72.11;101490.09;5044198;28;20049;-72
2023/12/03 06:07:13;;;;;;;5.80;0.70;;;;;;;-3.05;72.57;101485.78;5044635;28;20589;-71
2023/12/03 06:09:39;;;;;;;1.63;0.60;;;;;;;-3.05;72.40;101490.88;5045821;28;20081;-71
2023/12/03 06:12:07;;;;;;;1.45;0.77;;;;;;;-3.07;72.18;101482.28;5040446;28;20568;-71
2023/12/03 06:14:34;;;;;;;1.30;0.40;;;;;;;-3.06;72.20;101489.13;5044662;28;20120;-71
2023/12/03 06:17:02;;;;;;;1.48;0.70;;;;;;;-3.07;72.34;101497.63;5043069;28;20118;-71
2023/12/03 06:19:29;;;;;;;3.47;0.60;;;;;;;-3.07;72.51;101492.50;5046970;28;20796;-72
2023/12/03 06:21:57;;;;;;;1.27;0.55;;;;;;;-3.06;72.43;101486.59;5044351;28;20045;-71
2023/12/03 06:24:26;;;;;;;1.48;0.60;;;;;;;-3.07;72.40;101499.31;5041701;28;20255;-71
2023/12/03 06:26:54;;;;;;;1.83;0.70;;;;;;;-3.07;72.29;101495.06;5040355;28;20069;-71
2023/12/03 06:29:21;;;;;;;1.55;0.50;;;;;;;-3.07;72.07;101495.06;5042375;28;20124;-71
2023/12/03 06:31:48;;;;;;;1.50;0.63;;;;;;;-3.07;71.87;101494.19;5042082;28;20076;-71
2023/12/03 06:34:16;;;;;;;1.55;0.82;;;;;;;-3.08;71.96;101495.84;5044514;28;20049;-72
2023/12/03 06:36:43;;;;;;;2.67;1.70;;;;;;;-3.08;72.17;101506.06;5044792;28;20045;-71
2023/12/03 06:39:10;;;;;;;1.25;0.70;;;;;;;-3.09;72.13;101494.09;5044003;28;20059;-71
2023/12/03 06:41:39;;;;;;;2.55;0.68;;;;;;;-3.07;72.09;101504.41;5043186;28;20072;-71
2023/12/03 06:44:06;;;;;;;1.33;0.40;;;;;;;-3.10;72.26;101505.16;5042325;28;20072;-72
2023/12/03 06:46:39;;;;;;;1.23;0.80;;;;;;;-3.10;72.09;101506.81;5040600;28;20510;-72
2023/12/03 06:49:06;;;;;;;1.30;0.63;;;;;;;-3.11;71.78;101512.72;5044425;28;20080;-72
2023/12/03 06:51:33;;;;;;;2.70;0.60;;;;;;;-3.12;71.74;101516.97;5043009;28;20605;-69
2023/12/03 06:54:01;;;;;;;2.55;0.60;;;;;;;-3.13;72.41;101510.13;5043697;28;20049;-70
2023/12/03 06:56:28;;;;;;;2.38;0.93;;;;;;;-3.13;71.87;101507.56;5040814;28;20132;-70
2023/12/03 06:58:56;;;;;;;4.15;1.00;;;;;;;-3.12;71.81;101514.41;5043512;28;20081;-70
2023/12/03 07:01:23;;;;;;;1.20;0.68;;;;;;;-3.13;72.18;101510.13;5042880;28;20041;-70
2023/12/03 07:03:50;;;;;;;3.08;0.90;;;;;;;-3.18;72.01;101514.13;5046388;28;20128;-70
2023/12/03 07:06:17;;;;;;;1.80;0.52;;;;;;;-3.13;72.47;101527.09;5042165;28;20052;-70
2023/12/03 07:08:45;;;;;;;1.67;0.63;;;;;;;-3.14;72.02;101531.34;5046405;28;20128;-71
2023/12/03 07:11:13;;;;;;;1.48;0.50;;;;;;;-3.13;72.32;101532.22;5048376;28;20048;-73
2023/12/03 07:13:40;;;;;;;2.22;0.60;;;;;;;-3.15;71.80;101532.16;5048445;28;20045;-73
2023/12/03 07:16:10;;;;;;;1.13;0.65;;;;;;;-3.17;72.19;101526.94;5045953;28;20080;-73
2023/12/03 07:18:38;;;;;;;1.92;0.82;;;;;;;-3.15;72.10;101528.72;5042548;28;20045;-71
2023/12/03 07:21:05;;;;;;;1.30;0.77;;;;;;;-3.18;72.21;101529.44;5045444;28;20055;-71
2023/12/03 07:23:32;;;;;;;2.45;0.98;;;;;;;-3.19;71.83;101526.03;5047878;28;20156;-72
2023/12/03 07:25:59;;;;;;;0.80;0.40;;;;;;;-3.18;72.40;101522.66;5047052;28;20055;-72
2023/12/03 07:28:26;;;;;;;1.58;0.65;;;;;;;-3.21;72.40;101525.06;5047854;28;20154;-69
2023/12/03 07:30:53;;;;;;;2.45;0.90;;;;;;;-3.19;72.28;101537.88;5043404;28;20071;-69
2023/12/03 07:33:21;;;;;;;1.70;0.98;;;;;;;-3.19;72.20;101537.88;5046962;28;20076;-69
2023/12/03 07:35:48;;;;;;;1.88;0.80;;;;;;;-3.20;71.98;101533.59;5046738;28;20099;-69
2023/12/03 07:38:15;;;;;;;1.75;0.70;;;;;;;-3.21;72.01;101535.28;5047061;28;20788;-69
2023/12/03 07:40:42;;;;;;;1.40;0.65;;;;;;;-3.21;72.16;101539.53;5047782;28;20088;-69
2023/12/03 07:43:10;;;;;;;2.47;0.80;;;;;;;-3.23;71.95;101536.00;5041818;28;20613;-69
2023/12/03 07:45:37;;;;;;;1.85;1.10;;;;;;;-3.23;71.79;101530.88;5049286;28;20076;-69
2023/12/03 07:48:04;;;;;;;1.27;0.73;;;;;;;-3.24;72.25;101540.25;5043180;28;20443;-69
2023/12/03 07:50:32;;;;;;;3.58;0.80;;;;;;;-3.24;71.94;101540.25;5046575;28;20076;-69
2023/12/03 07:53:00;;;;;;;2.55;0.80;;;;;;;-3.25;71.86;101538.47;5045743;28;20072;-69
2023/12/03 07:55:27;;;;;;;4.47;0.80;;;;;;;-3.24;71.47;101541.94;5046976;28;20099;-69
2023/12/03 07:57:54;;;;;;;1.85;0.70;;;;;;;-3.24;72.25;101540.25;5043098;28;20139;-69
2023/12/03 08:00:21;;;;;;;3.05;0.80;;;;;;;-3.24;72.33;101549.59;5048678;28;20080;-69
2023/12/03 08:02:48;;;;;;;2.70;0.80;;;;;;;-3.24;71.91;101547.03;5046160;28;20049;-69
2023/12/03 08:05:15;;;;;;;2.03;1.02;;;;;;;-3.25;72.23;101546.13;5045734;28;20531;-69
2023/12/03 08:07:44;;;;;;;2.65;0.82;;;;;;;-3.25;71.78;101556.34;5045694;28;20119;-70
2023/12/03 08:10:11;;;;;;;1.92;0.90;;;;;;;-3.26;72.17;101556.28;5046215;28;20139;-69
2023/12/03 08:12:37;;;;;;;3.70;1.20;;;;;;;-3.24;72.36;101545.34;5047309;28;20107;-69
2023/12/03 08:15:05;;;;;;;1.48;0.75;;;;;;;-3.24;72.14;101555.56;5045047;28;20068;-69
2023/12/03 08:17:32;;;;;;;2.13;0.82;;;;;;;-3.25;72.60;101548.69;5042357;28;20048;-69
2023/12/03 08:19:59;;;;;;;2.55;0.80;;;;;;;-3.24;71.88;101554.69;5047231;28;20465;-70
2023/12/03 08:22:26;;;;;;;2.05;0.80;;;;;;;-3.25;72.04;101548.69;5041705;28;20080;-72
2023/12/03 08:24:55;;;;;;;2.05;0.90;;;;;;;-3.24;72.26;101559.81;5042258;28;20081;-73
2023/12/03 08:27:21;;;;;;;2.17;1.13;;;;;;;-3.24;72.30;101554.69;5047833;28;20123;-72
2023/12/03 08:29:48;;;;;;;2.15;0.75;;;;;;;-3.23;72.32;101556.44;5044681;28;20085;-73
2023/12/03 08:32:15;;;;;;;3.03;0.82;;;;;;;-3.24;72.23;101555.56;5045773;28;20558;-73
2023/12/03 08:34:42;;;;;;;4.22;1.00;;;;;;;-3.23;72.06;101551.34;5043665;28;20053;-73
2023/12/03 08:37:10;;;;;;;2.72;1.20;;;;;;;-3.24;72.44;101560.69;5045554;28;20045;-72
2023/12/03 08:39:37;;;;;;;4.45;1.15;;;;;;;-3.23;72.10;101561.56;5047308;28;20080;-70
2023/12/03 08:42:05;;;;;;;1.10;0.63;;;;;;;-3.23;71.78;101559.88;5042398;28;20503;-71
2023/12/03 08:44:33;;;;;;;1.30;0.60;;;;;;;-3.23;72.23;101557.31;5044530;28;20099;-70
2023/12/03 08:47:00;;;;;;;2.08;0.90;;;;;;;-3.20;72.16;101559.16;5037906;28;20844;-70
2023/12/03 08:49:27;;;;;;;3.45;1.00;;;;;;;-3.21;72.46;101567.63;5043366;28;20080;-70
2023/12/03 08:51:54;;;;;;;3.45;0.73;;;;;;;-3.20;72.43;101561.69;5045982;28;20080;-70
2023/12/03 08:54:21;;;;;;;3.58;1.00;;;;;;;-3.20;72.16;101560.03;5041495;28;20160;-70
2023/12/03 08:56:48;;;;;;;2.53;1.10;;;;;;;-3.18;72.51;101567.78;5042088;28;20049;-70
2023/12/03 08:59:16;;;;;;;1.35;0.82;;;;;;;-3.18;72.17;101560.09;5041967;28;20094;-70
2023/12/03 09:01:43;;;;;;;1.85;0.85;;;;;;;-3.18;72.15;101568.66;5040602;28;20124;-70
2023/12/03 09:04:12;;;;;;;2.72;1.00;;;;;;;-3.18;72.16;101563.53;5041280;28;20076;-70
2023/12/03 09:06:39;;;;;;;2.70;0.80;;;;;;;-3.15;72.45;101564.50;5040055;28;20084;-71
2023/12/03 09:09:06;;;;;;;1.52;0.70;;;;;;;-3.15;72.41;101574.72;5052269;28;20072;-70
2023/12/03 09:11:35;;;;;;;1.75;0.80;;;;;;;-3.13;72.29;101570.53;5050318;28;20131;-71
2023/12/03 09:14:02;;;;;;;2.17;0.75;;;;;;;-3.13;72.54;101576.56;5053610;28;20055;-71
2023/12/03 09:16:31;;;;;;;1.65;1.00;;;;;;;-3.12;72.27;101578.28;5049510;28;20076;-71
2023/12/03 09:18:58;;;;;;;3.83;0.90;;;;;;;-3.10;72.35;101586.03;5049429;28;20123;-70
2023/12/03 09:21:24;;;;;;;2.03;1.27;;;;;;;-3.10;72.41;101586.94;5054858;28;20567;-71
2023/12/03 09:23:51;;;;;;;1.65;0.80;;;;;;;-3.09;72.40;101591.22;5053523;28;20088;-71
2023/12/03 09:26:18;;;;;;;1.52;0.88;;;;;;;-3.07;72.54;101586.22;5051181;28;20543;-70
2023/12/03 09:28:45;;;;;;;2.53;0.80;;;;;;;-3.06;72.08;101586.25;5052267;28;20123;-71
2023/12/03 09:31:12;;;;;;;2.15;0.50;;;;;;;-3.05;72.62;101582.91;5044006;28;20056;-70
2023/12/03 09:33:41;;;;;;;2.47;0.90;;;;;;;-3.04;72.63;101584.66;5054400;28;20080;-71
2023/12/03 09:36:09;;;;;;;1.50;0.60;;;;;;;-3.02;72.62;101583.03;5054557;28;20076;-71
2023/12/03 09:38:36;;;;;;;2.33;0.75;;;;;;;-2.99;72.10;101587.44;5055671;28;20103;-70
2023/12/03 09:41:08;;;;;;;1.85;0.90;;;;;;;-2.99;72.17;101583.22;5048882;28;20045;-70
2023/12/03 09:43:38;;;;;;;2.00;0.85;;;;;;;-2.98;72.58;101584.97;5049783;28;20072;-71
2023/12/03 09:46:10;;;;;;;2.08;0.85;;;;;;;-2.96;72.32;101591.03;5050500;28;20109;-70
2023/12/03 09:48:39;;;;;;;2.28;0.90;;;;;;;-2.94;72.47;101593.66;5039870;28;20076;-71
2023/12/03 09:51:09;;;;;;;1.20;0.70;;;;;;;-2.92;72.30;101584.41;5048795;28;20076;-70
2023/12/03 09:53:39;;;;;;;1.98;0.80;;;;;;;-2.90;72.68;101590.47;5046728;28;20144;-70
2023/12/03 09:56:08;;;;;;;1.90;0.55;;;;;;;-2.88;72.75;101587.97;5048218;28;20095;-70
2023/12/03 09:58:35;;;;;;;2.83;0.88;;;;;;;-2.86;72.59;101583.81;5051633;28;20148;-71
2023/12/03 10:01:03;;;;;;;1.77;1.48;;;;;;;-2.85;72.52;101590.66;5047804;28;20634;-70
2023/12/03 10:03:30;;;;;;;1.88;0.95;;;;;;;-2.83;72.69;101587.41;5050790;28;20072;-71
2023/12/03 10:05:57;;;;;;;2.42;0.90;;;;;;;-2.82;72.67;101580.59;5048723;28;20072;-71
2023/12/03 10:08:27;;;;;;;1.83;0.57;;;;;;;-2.80;72.44;101591.78;5043264;28;20052;-70
2023/12/03 10:11:00;;;;;;;2.53;0.70;;;;;;;-2.79;72.43;101589.31;5046024;28;20076;-71
2023/12/03 10:13:27;;;;;;;1.60;0.65;;;;;;;-2.77;72.41;101579.13;5045997;28;20483;-71
2023/12/03 10:15:55;;;;;;;1.77;0.73;;;;;;;-2.77;72.45;101580.00;5047955;28;20891;-70
2023/12/03 10:18:22;;;;;;;3.97;0.85;;;;;;;-2.74;72.44;101581.84;5053764;28;20049;-70
2023/12/03 10:20:49;;;;;;;2.95;0.77;;;;;;;-2.73;72.45;101581.94;5049796;28;20052;-70
2023/12/03 10:23:18;;;;;;;3.17;1.10;;;;;;;-2.71;72.01;101579.44;5051992;28;20079;-71
2023/12/03 10:25:46;;;;;;;2.45;0.75;;;;;;;-2.70;71.98;101576.09;5053508;28;20052;-70
2023/12/03 10:28:13;;;;;;;1.67;0.60;;;;;;;-2.71;72.06;101571.75;5050903;28;20132;-70
2023/12/03 10:30:41;;;;;;;1.95;0.80;;;;;;;-2.68;72.25;101574.47;5050527;28;20554;-70
2023/12/03 10:33:11;;;;;;;3.30;0.95;;;;;;;-2.66;72.29;101566.88;5049850;28;20048;-70
2023/12/03 10:35:38;;;;;;;2.40;1.05;;;;;;;-2.65;72.10;101569.50;5049398;28;20052;-70
2023/12/03 10:38:07;;;;;;;1.20;1.00;;;;;;;-2.64;71.99;101576.38;5050500;28;20055;-71
2023/12/03 10:40:34;;;;;;;1.85;1.05;;;;;;;-2.63;72.36;101557.66;5050420;28;20044;-72
2023/12/03 10:43:03;;;;;;;4.45;1.70;;;;;;;-2.61;72.33;101571.41;5050096;28;20486;-72
2023/12/03 10:45:32;;;;;;;4.63;2.10;;;;;;;-2.64;72.14;101552.50;5057499;28;20068;-71
2023/12/03 10:48:01;;;;;;;6.45;2.78;;;;;;;-2.61;72.52;101556.06;5050595;28;20052;-71
2023/12/03 10:50:30;;;;;;;2.88;1.48;;;;;;;-2.59;72.06;101561.22;5057008;28;20104;-72
2023/12/03 10:52:59;;;;;;;2.10;1.10;;;;;;;-2.59;72.26;101559.56;5050760;28;20081;-72
2023/12/03 10:55:26;;;;;;;1.90;1.02;;;;;;;-2.58;72.05;101565.56;5058437;28;20067;-72
2023/12/03 10:58:00;;;;;;;3.53;1.10;;;;;;;-2.58;72.25;101563.88;5055364;28;20145;-72
2023/12/03 11:00:36;;;;;;;3.45;1.75;;;;;;;-2.57;72.06;101565.63;5055626;28;20080;-72
2023/12/03 11:03:15;;;;;;;1.83;0.88;;;;;;;-2.56;72.30;101575.06;5054814;28;20052;-72
2023/12/03 11:05:51;;;;;;;3.25;1.05;;;;;;;-2.56;71.96;101569.97;5051850;28;21230;-71
2023/12/03 11:08:20;;;;;;;3.40;0.95;;;;;;;-2.57;71.94;101578.41;5054030;28;20052;-71
2023/12/03 11:10:47;;;;;;;3.22;1.08;;;;;;;-2.54;72.05;101578.56;5054095;28;20052;-72
2023/12/03 11:13:17;;;;;;;1.88;1.10;;;;;;;-2.53;72.13;101585.44;5055788;28;20136;-71
2023/12/03 11:15:47;;;;;;;4.75;2.05;;;;;;;-2.52;71.81;101587.19;5057487;28;20495;-71
2023/12/03 11:18:17;;;;;;;2.95;1.45;;;;;;;-2.53;71.94;101582.88;5052666;28;20041;-72
2023/12/03 11:20:47;;;;;;;3.58;1.67;;;;;;;-2.51;72.14;101591.50;5050921;28;20135;-72
2023/12/03 11:23:41;;;;;;;2.50;1.10;;;;;;;-2.55;71.56;101575.94;5051892;28;20076;-73
2023/12/03 11:26:12;;;;;;;1.45;0.98;;;;;;;-2.50;71.85;101577.91;5053412;28;20059;-72